sensor_id;sensor_type;location;lat;lon;timestamp;pressure;altitude;pressure_sealevel;temperature;humidity
54996;BME280;40893;47.146;9.126;2022-07-22T00:01:39;91681.28;;;19.30;86.28
54996;BME280;40893;47.146;9.126;2022-07-22T00:04:04;91674.63;;;19.20;86.60
54996;BME280;40893;47.146;9.126;2022-07-22T00:06:30;91681.50;;;19.25;87.54
54996;BME280;40893;47.146;9.126;2022-07-22T00:08:56;91675.34;;;19.30;86.74
54996;BME280;40893;47.146;9.126;2022-07-22T00:11:23;91678.13;;;19.25;87.04
54996;BME280;40893;47.146;9.126;2022-07-22T00:13:48;91679.66;;;19.26;87.58
54996;BME280;40893;47.146;9.126;2022-07-22T00:16:14;91679.19;;;19.23;87.15
54996;BME280;40893;47.146;9.126;2022-07-22T00:18:39;91664.00;;;19.13;88.08
54996;BME280;40893;47.146;9.126;2022-07-22T00:21:05;91670.72;;;19.14;88.55
54996;BME280;40893;47.146;9.126;2022-07-22T00:23:31;91665.66;;;19.18;88.68
54996;BME280;40893;47.146;9.126;2022-07-22T00:25:56;91656.00;;;19.18;88.99
54996;BME280;40893;47.146;9.126;2022-07-22T00:28:22;91657.50;;;19.19;88.70
54996;BME280;40893;47.146;9.126;2022-07-22T00:30:47;91654.72;;;19.25;89.05
54996;BME280;40893;47.146;9.126;2022-07-22T00:33:13;91659.34;;;19.19;88.47
54996;BME280;40893;47.146;9.126;2022-07-22T00:35:38;91649.81;;;19.23;88.48
54996;BME280;40893;47.146;9.126;2022-07-22T00:38:04;91655.78;;;19.23;88.66
54996;BME280;40893;47.146;9.126;2022-07-22T00:40:29;91651.47;;;19.28;88.42
54996;BME280;40893;47.146;9.126;2022-07-22T00:42:55;91653.63;;;19.26;89.01
54996;BME280;40893;47.146;9.126;2022-07-22T00:45:20;91651.03;;;19.26;87.71
54996;BME280;40893;47.146;9.126;2022-07-22T00:47:46;91647.03;;;19.28;88.66
54996;BME280;40893;47.146;9.126;2022-07-22T00:50:12;91641.84;;;19.28;87.92
54996;BME280;40893;47.146;9.126;2022-07-22T00:52:41;91645.91;;;19.17;87.24
54996;BME280;40893;47.146;9.126;2022-07-22T00:55:07;91642.94;;;19.06;87.62
54996;BME280;40893;47.146;9.126;2022-07-22T00:57:33;91648.50;;;18.96;87.60
54996;BME280;40893;47.146;9.126;2022-07-22T00:59:59;91646.06;;;18.79;88.23
54996;BME280;40893;47.146;9.126;2022-07-22T01:02:24;91646.56;;;18.72;88.64
54996;BME280;40893;47.146;9.126;2022-07-22T01:04:50;91634.44;;;18.76;88.82
54996;BME280;40893;47.146;9.126;2022-07-22T01:07:16;91637.56;;;18.70;88.99
54996;BME280;40893;47.146;9.126;2022-07-22T01:09:45;91636.56;;;18.62;89.34
54996;BME280;40893;47.146;9.126;2022-07-22T01:12:10;91633.66;;;18.55;89.95
54996;BME280;40893;47.146;9.126;2022-07-22T01:14:36;91632.63;;;18.47;90.70
54996;BME280;40893;47.146;9.126;2022-07-22T01:17:02;91632.63;;;18.47;91.28
54996;BME280;40893;47.146;9.126;2022-07-22T01:19:28;91628.50;;;18.46;91.05
54996;BME280;40893;47.146;9.126;2022-07-22T01:21:54;91622.56;;;18.46;91.03
54996;BME280;40893;47.146;9.126;2022-07-22T01:24:19;91629.44;;;18.42;92.00
54996;BME280;40893;47.146;9.126;2022-07-22T01:26:45;91624.69;;;18.44;91.78
54996;BME280;40893;47.146;9.126;2022-07-22T01:29:10;91624.22;;;18.50;91.50
54996;BME280;40893;47.146;9.126;2022-07-22T01:31:36;91622.34;;;18.60;91.17
54996;BME280;40893;47.146;9.126;2022-07-22T01:34:01;91625.63;;;18.69;90.15
54996;BME280;40893;47.146;9.126;2022-07-22T01:36:27;91619.16;;;18.75;90.10
54996;BME280;40893;47.146;9.126;2022-07-22T01:38:53;91623.28;;;18.76;89.73
54996;BME280;40893;47.146;9.126;2022-07-22T01:41:18;91614.31;;;18.73;89.46
54996;BME280;40893;47.146;9.126;2022-07-22T01:43:44;91612.44;;;18.74;89.98
54996;BME280;40893;47.146;9.126;2022-07-22T01:46:09;91615.69;;;18.71;89.84
54996;BME280;40893;47.146;9.126;2022-07-22T01:48:35;91614.34;;;18.65;90.33
54996;BME280;40893;47.146;9.126;2022-07-22T01:51:00;91615.25;;;18.69;89.93
54996;BME280;40893;47.146;9.126;2022-07-22T01:53:26;91613.22;;;18.74;89.25
54996;BME280;40893;47.146;9.126;2022-07-22T01:55:52;91614.88;;;18.79;89.01
54996;BME280;40893;47.146;9.126;2022-07-22T01:58:17;91613.53;;;18.73;88.87
54996;BME280;40893;47.146;9.126;2022-07-22T02:00:43;91618.41;;;18.74;90.01
54996;BME280;40893;47.146;9.126;2022-07-22T02:03:09;91612.25;;;18.79;89.65
54996;BME280;40893;47.146;9.126;2022-07-22T02:05:36;91607.31;;;18.86;89.24
54996;BME280;40893;47.146;9.126;2022-07-22T02:08:04;91609.81;;;18.82;89.59
54996;BME280;40893;47.146;9.126;2022-07-22T02:10:30;91606.44;;;18.82;89.41
54996;BME280;40893;47.146;9.126;2022-07-22T02:12:56;91604.47;;;18.79;89.11
54996;BME280;40893;47.146;9.126;2022-07-22T02:15:22;91603.41;;;18.80;89.24
54996;BME280;40893;47.146;9.126;2022-07-22T02:17:48;91604.31;;;18.55;90.32
54996;BME280;40893;47.146;9.126;2022-07-22T02:20:14;91599.41;;;18.53;90.17
54996;BME280;40893;47.146;9.126;2022-07-22T02:22:40;91597.72;;;18.57;90.40
54996;BME280;40893;47.146;9.126;2022-07-22T02:25:05;91602.16;;;18.57;90.48
54996;BME280;40893;47.146;9.126;2022-07-22T02:27:31;91596.81;;;18.53;90.79
54996;BME280;40893;47.146;9.126;2022-07-22T02:29:56;91588.34;;;18.44;91.46
54996;BME280;40893;47.146;9.126;2022-07-22T02:32:22;91592.78;;;18.43;91.61
54996;BME280;40893;47.146;9.126;2022-07-22T02:34:47;91587.13;;;18.41;91.88
54996;BME280;40893;47.146;9.126;2022-07-22T02:37:13;91584.72;;;18.36;92.60
54996;BME280;40893;47.146;9.126;2022-07-22T02:39:38;91581.00;;;18.46;92.31
54996;BME280;40893;47.146;9.126;2022-07-22T02:42:04;91587.41;;;18.48;91.81
54996;BME280;40893;47.146;9.126;2022-07-22T02:44:29;91582.97;;;18.49;91.19
54996;BME280;40893;47.146;9.126;2022-07-22T02:46:55;91581.63;;;18.43;91.58
54996;BME280;40893;47.146;9.126;2022-07-22T02:49:20;91578.25;;;18.42;92.19
54996;BME280;40893;47.146;9.126;2022-07-22T02:51:46;91582.44;;;18.35;91.63
54996;BME280;40893;47.146;9.126;2022-07-22T02:54:11;91578.00;;;18.35;92.27
54996;BME280;40893;47.146;9.126;2022-07-22T02:56:37;91575.56;;;18.39;92.13
54996;BME280;40893;47.146;9.126;2022-07-22T02:59:02;91575.34;;;18.44;91.21
54996;BME280;40893;47.146;9.126;2022-07-22T03:01:28;91573.06;;;18.42;91.58
54996;BME280;40893;47.146;9.126;2022-07-22T03:03:53;91572.81;;;18.35;91.55
54996;BME280;40893;47.146;9.126;2022-07-22T03:06:19;91565.47;;;18.37;91.94
54996;BME280;40893;47.146;9.126;2022-07-22T03:08:46;91572.00;;;18.43;90.88
54996;BME280;40893;47.146;9.126;2022-07-22T03:11:12;91570.91;;;18.44;90.30
54996;BME280;40893;47.146;9.126;2022-07-22T03:13:37;91569.31;;;18.52;90.91
54996;BME280;40893;47.146;9.126;2022-07-22T03:16:03;91569.47;;;18.56;91.13
54996;BME280;40893;47.146;9.126;2022-07-22T03:18:29;91570.75;;;18.49;90.64
54996;BME280;40893;47.146;9.126;2022-07-22T03:20:54;91569.16;;;18.36;91.77
54996;BME280;40893;47.146;9.126;2022-07-22T03:23:20;91573.44;;;18.32;91.85
54996;BME280;40893;47.146;9.126;2022-07-22T03:25:45;91572.06;;;18.35;92.73
54996;BME280;40893;47.146;9.126;2022-07-22T03:28:11;91568.31;;;18.24;91.81
54996;BME280;40893;47.146;9.126;2022-07-22T03:30:36;91569.06;;;18.24;92.29
54996;BME280;40893;47.146;9.126;2022-07-22T03:33:02;91562.97;;;18.20;92.16
54996;BME280;40893;47.146;9.126;2022-07-22T03:35:27;91575.09;;;18.16;93.25
54996;BME280;40893;47.146;9.126;2022-07-22T03:37:53;91567.16;;;18.12;93.66
54996;BME280;40893;47.146;9.126;2022-07-22T03:40:18;91567.41;;;18.20;93.63
54996;BME280;40893;47.146;9.126;2022-07-22T03:42:44;91566.97;;;18.18;92.43
54996;BME280;40893;47.146;9.126;2022-07-22T03:45:10;91567.47;;;18.11;92.70
54996;BME280;40893;47.146;9.126;2022-07-22T03:47:35;91573.47;;;18.03;93.40
54996;BME280;40893;47.146;9.126;2022-07-22T03:50:01;91573.94;;;18.05;92.79
54996;BME280;40893;47.146;9.126;2022-07-22T03:52:28;91566.53;;;18.16;92.70
54996;BME280;40893;47.146;9.126;2022-07-22T03:54:53;91570.97;;;18.15;91.91
54996;BME280;40893;47.146;9.126;2022-07-22T03:57:19;91576.94;;;18.07;92.07
54996;BME280;40893;47.146;9.126;2022-07-22T03:59:45;91575.88;;;18.08;92.60
54996;BME280;40893;47.146;9.126;2022-07-22T04:02:11;91567.91;;;18.13;92.72
54996;BME280;40893;47.146;9.126;2022-07-22T04:04:36;91567.09;;;18.21;92.26
54996;BME280;40893;47.146;9.126;2022-07-22T04:07:02;91564.94;;;18.23;91.60
54996;BME280;40893;47.146;9.126;2022-07-22T04:09:27;91567.53;;;18.23;92.33
54996;BME280;40893;47.146;9.126;2022-07-22T04:11:53;91571.53;;;18.21;92.86
54996;BME280;40893;47.146;9.126;2022-07-22T04:14:18;91564.03;;;18.19;92.71
54996;BME280;40893;47.146;9.126;2022-07-22T04:16:44;91563.56;;;18.26;92.53
54996;BME280;40893;47.146;9.126;2022-07-22T04:19:10;91566.09;;;18.34;92.24
54996;BME280;40893;47.146;9.126;2022-07-22T04:21:36;91568.94;;;18.41;92.13
54996;BME280;40893;47.146;9.126;2022-07-22T04:24:02;91565.41;;;18.46;91.21
54996;BME280;40893;47.146;9.126;2022-07-22T04:26:27;91559.22;;;18.38;92.31
54996;BME280;40893;47.146;9.126;2022-07-22T04:28:53;91555.53;;;18.39;93.06
54996;BME280;40893;47.146;9.126;2022-07-22T04:31:18;91552.53;;;18.29;93.52
54996;BME280;40893;47.146;9.126;2022-07-22T04:33:44;91554.25;;;18.25;94.17
54996;BME280;40893;47.146;9.126;2022-07-22T04:36:09;91552.22;;;18.30;94.15
54996;BME280;40893;47.146;9.126;2022-07-22T04:38:35;91555.09;;;18.37;94.15
54996;BME280;40893;47.146;9.126;2022-07-22T04:41:00;91549.06;;;18.45;92.94
54996;BME280;40893;47.146;9.126;2022-07-22T04:43:26;91554.25;;;18.45;93.76
54996;BME280;40893;47.146;9.126;2022-07-22T04:45:51;91547.97;;;18.46;93.50
54996;BME280;40893;47.146;9.126;2022-07-22T04:48:17;91549.19;;;18.49;93.61
54996;BME280;40893;47.146;9.126;2022-07-22T04:50:43;91546.28;;;18.50;92.68
54996;BME280;40893;47.146;9.126;2022-07-22T04:53:09;91548.22;;;18.54;92.88
54996;BME280;40893;47.146;9.126;2022-07-22T04:55:35;91548.84;;;18.59;91.83
54996;BME280;40893;47.146;9.126;2022-07-22T04:58:00;91552.66;;;18.62;92.62
54996;BME280;40893;47.146;9.126;2022-07-22T05:00:26;91548.94;;;18.63;92.29
54996;BME280;40893;47.146;9.126;2022-07-22T05:02:51;91550.47;;;18.64;92.77
54996;BME280;40893;47.146;9.126;2022-07-22T05:05:17;91551.88;;;18.61;92.00
54996;BME280;40893;47.146;9.126;2022-07-22T05:07:42;91557.19;;;18.65;92.59
54996;BME280;40893;47.146;9.126;2022-07-22T05:10:08;91550.28;;;18.69;93.17
54996;BME280;40893;47.146;9.126;2022-07-22T05:12:34;91553.56;;;18.78;92.68
54996;BME280;40893;47.146;9.126;2022-07-22T05:15:00;91554.78;;;18.80;90.83
54996;BME280;40893;47.146;9.126;2022-07-22T05:17:25;91548.59;;;18.85;90.42
54996;BME280;40893;47.146;9.126;2022-07-22T05:19:51;91555.91;;;18.92;90.81
54996;BME280;40893;47.146;9.126;2022-07-22T05:22:16;91547.13;;;18.96;89.47
54996;BME280;40893;47.146;9.126;2022-07-22T05:24:42;91554.28;;;18.99;88.88
54996;BME280;40893;47.146;9.126;2022-07-22T05:27:07;91557.78;;;19.03;89.59
54996;BME280;40893;47.146;9.126;2022-07-22T05:29:33;91553.47;;;19.07;89.89
54996;BME280;40893;47.146;9.126;2022-07-22T05:31:58;91553.69;;;19.14;89.70
54996;BME280;40893;47.146;9.126;2022-07-22T05:34:24;91557.19;;;19.18;88.88
54996;BME280;40893;47.146;9.126;2022-07-22T05:36:49;91548.72;;;19.21;89.31
54996;BME280;40893;47.146;9.126;2022-07-22T05:39:15;91553.72;;;19.27;89.09
54996;BME280;40893;47.146;9.126;2022-07-22T05:41:40;91548.09;;;19.37;89.40
54996;BME280;40893;47.146;9.126;2022-07-22T05:44:06;91547.25;;;19.45;89.44
54996;BME280;40893;47.146;9.126;2022-07-22T05:46:31;91544.47;;;19.50;88.32
54996;BME280;40893;47.146;9.126;2022-07-22T05:48:57;91541.63;;;19.55;87.68
54996;BME280;40893;47.146;9.126;2022-07-22T05:51:23;91544.03;;;19.60;88.99
54996;BME280;40893;47.146;9.126;2022-07-22T05:53:49;91542.41;;;19.68;87.78
54996;BME280;40893;47.146;9.126;2022-07-22T05:56:15;91540.13;;;19.78;87.93
54996;BME280;40893;47.146;9.126;2022-07-22T05:58:41;91536.66;;;19.86;86.68
54996;BME280;40893;47.146;9.126;2022-07-22T06:01:08;91542.41;;;20.04;85.70
54996;BME280;40893;47.146;9.126;2022-07-22T06:03:34;91535.78;;;20.19;86.70
54996;BME280;40893;47.146;9.126;2022-07-22T06:06:00;91545.22;;;20.36;83.50
54996;BME280;40893;47.146;9.126;2022-07-22T06:08:27;91546.91;;;20.56;85.94
54996;BME280;40893;47.146;9.126;2022-07-22T06:10:53;91546.53;;;20.70;83.89
54996;BME280;40893;47.146;9.126;2022-07-22T06:13:18;91544.53;;;20.79;84.84
54996;BME280;40893;47.146;9.126;2022-07-22T06:15:44;91543.31;;;20.88;83.13
54996;BME280;40893;47.146;9.126;2022-07-22T06:18:10;91547.38;;;21.01;82.65
54996;BME280;40893;47.146;9.126;2022-07-22T06:20:35;91541.34;;;21.13;83.32
54996;BME280;40893;47.146;9.126;2022-07-22T06:23:01;91545.63;;;21.33;80.22
54996;BME280;40893;47.146;9.126;2022-07-22T06:25:27;91547.91;;;21.51;78.66
54996;BME280;40893;47.146;9.126;2022-07-22T06:27:53;91546.75;;;21.64;80.20
54996;BME280;40893;47.146;9.126;2022-07-22T06:30:18;91542.09;;;21.73;78.76
54996;BME280;40893;47.146;9.126;2022-07-22T06:32:44;91542.88;;;21.89;78.81
54996;BME280;40893;47.146;9.126;2022-07-22T06:35:09;91542.38;;;21.99;76.84
54996;BME280;40893;47.146;9.126;2022-07-22T06:37:35;91545.56;;;22.08;76.27
54996;BME280;40893;47.146;9.126;2022-07-22T06:40:01;91542.00;;;22.17;76.74
54996;BME280;40893;47.146;9.126;2022-07-22T06:42:27;91543.00;;;22.28;76.29
54996;BME280;40893;47.146;9.126;2022-07-22T06:44:52;91540.19;;;22.36;75.64
54996;BME280;40893;47.146;9.126;2022-07-22T06:47:18;91541.56;;;22.50;75.58
54996;BME280;40893;47.146;9.126;2022-07-22T06:49:43;91546.59;;;22.58;74.48
54996;BME280;40893;47.146;9.126;2022-07-22T06:52:09;91543.38;;;22.65;74.44
54996;BME280;40893;47.146;9.126;2022-07-22T06:54:34;91537.31;;;22.76;73.85
54996;BME280;40893;47.146;9.126;2022-07-22T06:57:00;91541.84;;;22.79;72.94
54996;BME280;40893;47.146;9.126;2022-07-22T06:59:25;91546.16;;;22.91;74.23
54996;BME280;40893;47.146;9.126;2022-07-22T07:01:51;91537.63;;;22.94;73.29
54996;BME280;40893;47.146;9.126;2022-07-22T07:04:16;91538.03;;;22.96;73.93
54996;BME280;40893;47.146;9.126;2022-07-22T07:06:44;91546.50;;;23.09;72.49
54996;BME280;40893;47.146;9.126;2022-07-22T07:09:09;91535.88;;;23.21;71.61
54996;BME280;40893;47.146;9.126;2022-07-22T07:11:35;91537.19;;;23.31;69.88
54996;BME280;40893;47.146;9.126;2022-07-22T07:14:01;91542.19;;;23.39;69.43
54996;BME280;40893;47.146;9.126;2022-07-22T07:16:26;91543.47;;;23.49;70.15
54996;BME280;40893;47.146;9.126;2022-07-22T07:18:52;91539.94;;;23.61;67.88
54996;BME280;40893;47.146;9.126;2022-07-22T07:21:17;91541.22;;;23.70;68.14
54996;BME280;40893;47.146;9.126;2022-07-22T07:23:43;91537.28;;;23.80;67.24
54996;BME280;40893;47.146;9.126;2022-07-22T07:26:08;91536.28;;;23.88;67.66
54996;BME280;40893;47.146;9.126;2022-07-22T07:28:34;91530.78;;;23.97;67.79
54996;BME280;40893;47.146;9.126;2022-07-22T07:30:59;91529.19;;;24.15;66.56
54996;BME280;40893;47.146;9.126;2022-07-22T07:33:25;91528.97;;;24.23;67.52
54996;BME280;40893;47.146;9.126;2022-07-22T07:35:50;91526.00;;;24.25;68.98
54996;BME280;40893;47.146;9.126;2022-07-22T07:38:16;91525.31;;;24.32;65.07
54996;BME280;40893;47.146;9.126;2022-07-22T07:40:42;91526.22;;;24.43;67.02
54996;BME280;40893;47.146;9.126;2022-07-22T07:43:08;91523.31;;;24.48;67.03
54996;BME280;40893;47.146;9.126;2022-07-22T07:45:33;91522.56;;;24.51;66.38
54996;BME280;40893;47.146;9.126;2022-07-22T07:47:59;91522.63;;;24.54;68.33
54996;BME280;40893;47.146;9.126;2022-07-22T07:50:25;91524.13;;;24.55;66.65
54996;BME280;40893;47.146;9.126;2022-07-22T07:52:51;91513.47;;;24.71;65.65
54996;BME280;40893;47.146;9.126;2022-07-22T07:55:17;91512.09;;;24.84;65.35
54996;BME280;40893;47.146;9.126;2022-07-22T07:57:43;91514.78;;;24.88;65.86
54996;BME280;40893;47.146;9.126;2022-07-22T08:00:12;91516.38;;;24.96;64.76
54996;BME280;40893;47.146;9.126;2022-07-22T08:02:39;91512.00;;;25.04;64.96
54996;BME280;40893;47.146;9.126;2022-07-22T08:05:05;91512.50;;;25.16;64.07
54996;BME280;40893;47.146;9.126;2022-07-22T08:07:31;91511.84;;;25.26;62.48
54996;BME280;40893;47.146;9.126;2022-07-22T08:09:56;91512.91;;;25.22;62.93
54996;BME280;40893;47.146;9.126;2022-07-22T08:12:22;91508.03;;;25.20;63.24
54996;BME280;40893;47.146;9.126;2022-07-22T08:14:47;91510.00;;;25.30;62.72
54996;BME280;40893;47.146;9.126;2022-07-22T08:17:13;91510.38;;;25.32;61.35
54996;BME280;40893;47.146;9.126;2022-07-22T08:19:38;91502.50;;;25.32;63.38
54996;BME280;40893;47.146;9.126;2022-07-22T08:22:04;91495.84;;;25.39;62.91
54996;BME280;40893;47.146;9.126;2022-07-22T08:24:29;91494.44;;;25.52;63.24
54996;BME280;40893;47.146;9.126;2022-07-22T08:26:55;91499.50;;;25.71;63.93
54996;BME280;40893;47.146;9.126;2022-07-22T08:29:20;91488.72;;;25.87;62.19
54996;BME280;40893;47.146;9.126;2022-07-22T08:31:46;91488.78;;;25.94;60.57
54996;BME280;40893;47.146;9.126;2022-07-22T08:34:11;91488.09;;;26.08;61.97
54996;BME280;40893;47.146;9.126;2022-07-22T08:36:37;91492.66;;;26.11;59.41
54996;BME280;40893;47.146;9.126;2022-07-22T08:39:03;91488.59;;;26.24;61.59
54996;BME280;40893;47.146;9.126;2022-07-22T08:41:34;91487.41;;;26.14;59.30
54996;BME280;40893;47.146;9.126;2022-07-22T08:44:00;91482.66;;;26.34;59.07
54996;BME280;40893;47.146;9.126;2022-07-22T08:46:27;91480.41;;;26.29;59.36
54996;BME280;40893;47.146;9.126;2022-07-22T08:48:53;91477.41;;;26.34;60.63
54996;BME280;40893;47.146;9.126;2022-07-22T08:51:20;91480.84;;;26.45;60.58
54996;BME280;40893;47.146;9.126;2022-07-22T08:53:46;91472.25;;;26.59;59.16
54996;BME280;40893;47.146;9.126;2022-07-22T08:56:13;91470.06;;;26.75;58.43
54996;BME280;40893;47.146;9.126;2022-07-22T08:58:39;91465.56;;;26.79;58.20
54996;BME280;40893;47.146;9.126;2022-07-22T09:01:14;91467.16;;;26.98;58.09
54996;BME280;40893;47.146;9.126;2022-07-22T09:03:48;91459.66;;;27.10;56.08
54996;BME280;40893;47.146;9.126;2022-07-22T09:06:16;91461.19;;;27.19;58.06
54996;BME280;40893;47.146;9.126;2022-07-22T09:09:05;91455.91;;;27.11;56.70
54996;BME280;40893;47.146;9.126;2022-07-22T09:11:31;91453.28;;;27.19;58.19
54996;BME280;40893;47.146;9.126;2022-07-22T09:13:59;91454.44;;;27.50;58.02
54996;BME280;40893;47.146;9.126;2022-07-22T09:16:44;91454.47;;;27.60;53.98
54996;BME280;40893;47.146;9.126;2022-07-22T09:19:11;91452.19;;;27.66;53.89
54996;BME280;40893;47.146;9.126;2022-07-22T09:21:39;91454.09;;;27.65;54.89
54996;BME280;40893;47.146;9.126;2022-07-22T09:24:06;91449.56;;;27.66;55.61
54996;BME280;40893;47.146;9.126;2022-07-22T09:26:34;91456.00;;;27.75;55.26
54996;BME280;40893;47.146;9.126;2022-07-22T09:29:00;91458.63;;;27.72;55.89
54996;BME280;40893;47.146;9.126;2022-07-22T09:31:31;91454.84;;;27.73;52.54
54996;BME280;40893;47.146;9.126;2022-07-22T09:33:57;91454.09;;;27.79;54.83
54996;BME280;40893;47.146;9.126;2022-07-22T09:36:24;91456.31;;;28.02;53.41
54996;BME280;40893;47.146;9.126;2022-07-22T09:38:50;91449.94;;;28.21;52.65
54996;BME280;40893;47.146;9.126;2022-07-22T09:41:16;91455.19;;;28.17;49.65
54996;BME280;40893;47.146;9.126;2022-07-22T09:43:41;91440.47;;;28.24;52.77
54996;BME280;40893;47.146;9.126;2022-07-22T09:46:07;91442.75;;;28.25;51.92
54996;BME280;40893;47.146;9.126;2022-07-22T09:48:33;91441.19;;;28.35;52.24
54996;BME280;40893;47.146;9.126;2022-07-22T09:50:59;91443.84;;;28.42;53.78
54996;BME280;40893;47.146;9.126;2022-07-22T09:53:27;91446.41;;;28.56;51.88
54996;BME280;40893;47.146;9.126;2022-07-22T09:55:54;91441.53;;;28.54;52.01
54996;BME280;40893;47.146;9.126;2022-07-22T09:58:19;91440.81;;;28.36;51.10
54996;BME280;40893;47.146;9.126;2022-07-22T10:00:45;91444.59;;;28.35;51.07
54996;BME280;40893;47.146;9.126;2022-07-22T10:03:26;91444.63;;;28.28;51.12
54996;BME280;40893;47.146;9.126;2022-07-22T10:05:52;91437.81;;;28.41;50.82
54996;BME280;40893;47.146;9.126;2022-07-22T10:08:18;91443.47;;;28.43;50.79
54996;BME280;40893;47.146;9.126;2022-07-22T10:10:44;91442.69;;;28.43;53.08
54996;BME280;40893;47.146;9.126;2022-07-22T10:13:10;91441.53;;;28.47;51.27
54996;BME280;40893;47.146;9.126;2022-07-22T10:15:36;91446.84;;;28.44;50.53
54996;BME280;40893;47.146;9.126;2022-07-22T10:18:08;91438.94;;;28.37;52.42
54996;BME280;40893;47.146;9.126;2022-07-22T10:20:34;91437.38;;;28.50;52.40
54996;BME280;40893;47.146;9.126;2022-07-22T10:25:29;91437.44;;;28.43;51.39
54996;BME280;40893;47.146;9.126;2022-07-22T10:28:04;91439.66;;;28.48;54.26
54996;BME280;40893;47.146;9.126;2022-07-22T10:30:35;91430.22;;;28.50;50.61
54996;BME280;40893;47.146;9.126;2022-07-22T10:33:15;91437.81;;;28.38;51.19
54996;BME280;40893;47.146;9.126;2022-07-22T10:38:11;91433.31;;;28.24;51.69
54996;BME280;40893;47.146;9.126;2022-07-22T10:40:54;91429.53;;;28.14;52.92
54996;BME280;40893;47.146;9.126;2022-07-22T10:43:22;91427.28;;;28.24;52.44
54996;BME280;40893;47.146;9.126;2022-07-22T10:45:59;91425.03;;;28.29;52.28
54996;BME280;40893;47.146;9.126;2022-07-22T10:51:18;91436.34;;;28.30;53.07
54996;BME280;40893;47.146;9.126;2022-07-22T10:53:58;91425.41;;;28.24;51.74
54996;BME280;40893;47.146;9.126;2022-07-22T10:56:30;91421.97;;;28.41;53.44
54996;BME280;40893;47.146;9.126;2022-07-22T10:58:59;91425.31;;;28.49;53.83
54996;BME280;40893;47.146;9.126;2022-07-22T11:01:32;91427.22;;;28.48;53.49
54996;BME280;40893;47.146;9.126;2022-07-22T11:04:21;91421.13;;;28.62;53.69
54996;BME280;40893;47.146;9.126;2022-07-22T11:06:52;91422.31;;;28.50;51.42
54996;BME280;40893;47.146;9.126;2022-07-22T11:09:20;91422.69;;;28.45;52.40
54996;BME280;40893;47.146;9.126;2022-07-22T11:11:52;91415.88;;;28.55;51.50
54996;BME280;40893;47.146;9.126;2022-07-22T11:14:31;91412.13;;;28.45;52.96
54996;BME280;40893;47.146;9.126;2022-07-22T11:19:28;91418.56;;;28.41;52.28
54996;BME280;40893;47.146;9.126;2022-07-22T11:21:57;91418.53;;;28.44;53.73
54996;BME280;40893;47.146;9.126;2022-07-22T11:24:24;91412.50;;;28.47;56.23
54996;BME280;40893;47.146;9.126;2022-07-22T11:26:52;91410.56;;;28.59;54.04
54996;BME280;40893;47.146;9.126;2022-07-22T11:29:26;91409.06;;;28.61;54.21
54996;BME280;40893;47.146;9.126;2022-07-22T11:31:53;91404.88;;;28.67;53.34
54996;BME280;40893;47.146;9.126;2022-07-22T11:34:19;91399.59;;;28.71;54.54
54996;BME280;40893;47.146;9.126;2022-07-22T11:36:46;91400.75;;;28.66;58.24
54996;BME280;40893;47.146;9.126;2022-07-22T11:39:13;91398.13;;;28.66;54.15
54996;BME280;40893;47.146;9.126;2022-07-22T11:41:40;91394.69;;;28.69;53.61
54996;BME280;40893;47.146;9.126;2022-07-22T11:44:06;91387.53;;;28.70;54.24
54996;BME280;40893;47.146;9.126;2022-07-22T11:46:37;91387.88;;;28.72;56.30
54996;BME280;40893;47.146;9.126;2022-07-22T11:49:03;91382.25;;;28.70;54.68
54996;BME280;40893;47.146;9.126;2022-07-22T11:51:30;91387.94;;;28.65;54.39
54996;BME280;40893;47.146;9.126;2022-07-22T11:53:57;91376.63;;;28.64;54.26
54996;BME280;40893;47.146;9.126;2022-07-22T11:56:23;91382.28;;;28.63;57.14
54996;BME280;40893;47.146;9.126;2022-07-22T11:58:50;91379.66;;;28.63;59.46
54996;BME280;40893;47.146;9.126;2022-07-22T12:01:20;91376.56;;;28.78;57.52
54996;BME280;40893;47.146;9.126;2022-07-22T12:04:10;91367.91;;;28.78;55.81
54996;BME280;40893;47.146;9.126;2022-07-22T12:06:39;91371.63;;;28.84;59.50
54996;BME280;40893;47.146;9.126;2022-07-22T12:09:10;91365.22;;;28.88;56.04
54996;BME280;40893;47.146;9.126;2022-07-22T12:11:39;91365.97;;;28.82;59.20
54996;BME280;40893;47.146;9.126;2022-07-22T12:16:43;91357.28;;;28.85;58.15
54996;BME280;40893;47.146;9.126;2022-07-22T12:19:11;91359.56;;;28.86;55.08
54996;BME280;40893;47.146;9.126;2022-07-22T12:21:59;91352.41;;;28.80;54.14
54996;BME280;40893;47.146;9.126;2022-07-22T12:24:27;91353.16;;;28.80;55.54
54996;BME280;40893;47.146;9.126;2022-07-22T12:26:55;91353.47;;;28.93;58.61
54996;BME280;40893;47.146;9.126;2022-07-22T12:29:50;91353.47;;;28.93;57.71
54996;BME280;40893;47.146;9.126;2022-07-22T12:34:55;91349.63;;;29.01;58.17
54996;BME280;40893;47.146;9.126;2022-07-22T12:37:30;91342.81;;;29.07;57.83
54996;BME280;40893;47.146;9.126;2022-07-22T12:40:00;91334.13;;;29.10;57.55
54996;BME280;40893;47.146;9.126;2022-07-22T12:42:34;91339.72;;;29.16;56.71
54996;BME280;40893;47.146;9.126;2022-07-22T12:45:04;91338.19;;;29.22;55.42
54996;BME280;40893;47.146;9.126;2022-07-22T12:50:19;91344.13;;;29.33;57.51
54996;BME280;40893;47.146;9.126;2022-07-22T12:52:45;91350.44;;;29.46;56.96
54996;BME280;40893;47.146;9.126;2022-07-22T12:55:11;91339.81;;;29.53;52.19
54996;BME280;40893;47.146;9.126;2022-07-22T12:57:37;91343.25;;;29.50;54.15
54996;BME280;40893;47.146;9.126;2022-07-22T13:00:04;91346.31;;;29.45;56.55
54996;BME280;40893;47.146;9.126;2022-07-22T13:02:30;91346.25;;;29.52;54.34
54996;BME280;40893;47.146;9.126;2022-07-22T13:04:56;91345.22;;;29.39;56.23
54996;BME280;40893;47.146;9.126;2022-07-22T13:07:21;91345.94;;;29.43;55.93
54996;BME280;40893;47.146;9.126;2022-07-22T13:09:47;91347.47;;;29.44;54.61
54996;BME280;40893;47.146;9.126;2022-07-22T13:12:12;91344.44;;;29.46;56.19
54996;BME280;40893;47.146;9.126;2022-07-22T13:14:38;91338.34;;;29.49;54.73
54996;BME280;40893;47.146;9.126;2022-07-22T13:17:03;91343.00;;;29.34;54.76